Time;durP1;ratioP1;P1;durP2;ratioP2;P2;SDS_P1;SDS_P2;PMS_P1;PMS_P2;Temp;Humidity;BMP_temperature;BMP_pressure;BME280_temperature;BME280_humidity;BME280_pressure;Samples;Min_cycle;Max_cycle;Signal;HPM_P1;HPM_P2
2023/04/28 00:02:20;;;;;;;1.35;1.25;;;;;;;9.93;41.70;100069.44;4490392;31;35187;-62
2023/04/28 00:04:48;;;;;;;3.50;2.67;;;;;;;9.77;42.07;100069.62;4489235;31;34329;-61
2023/04/28 00:07:16;;;;;;;2.72;1.15;;;;;;;9.78;42.24;100076.66;4487460;31;33649;-64
2023/04/28 00:09:44;;;;;;;1.02;0.98;;;;;;;9.68;42.22;100060.38;4494003;31;33991;-62
2023/04/28 00:12:12;;;;;;;0.70;0.70;;;;;;;9.70;42.15;100069.16;4486994;31;33865;-61
2023/04/28 00:14:39;;;;;;;2.05;1.30;;;;;;;9.15;43.50;100063.84;4483655;31;33292;-61
2023/04/28 00:17:08;;;;;;;1.67;1.37;;;;;;;8.42;45.63;100070.16;4485787;31;33997;-61
2023/04/28 00:19:37;;;;;;;4.20;1.58;;;;;;;8.63;44.76;100073.31;4485203;31;33952;-61
2023/04/28 00:22:05;;;;;;;2.53;1.80;;;;;;;9.27;42.75;100071.09;4480663;31;34016;-61
2023/04/28 00:24:32;;;;;;;1.55;1.33;;;;;;;9.68;41.88;100070.22;4481547;31;34234;-61
2023/04/28 00:27:01;;;;;;;3.20;1.42;;;;;;;9.86;42.17;100058.31;4491099;31;34629;-61
2023/04/28 00:29:28;;;;;;;1.08;0.98;;;;;;;9.92;42.56;100060.56;4488082;31;34783;-61
2023/04/28 00:31:56;;;;;;;2.37;0.98;;;;;;;9.80;41.37;100051.56;4496769;31;33835;-63
2023/04/28 00:34:24;;;;;;;2.70;1.45;;;;;;;9.70;41.87;100061.16;4492465;31;33402;-61
2023/04/28 00:36:51;;;;;;;1.02;1.00;;;;;;;9.74;41.77;100067.13;4495789;31;33584;-61
2023/04/28 00:39:19;;;;;;;1.85;1.67;;;;;;;10.02;41.26;100064.34;4492695;31;33874;-61
2023/04/28 00:41:47;;;;;;;2.28;1.60;;;;;;;10.50;40.33;100069.16;4490299;31;35116;-62
2023/04/28 00:44:14;;;;;;;2.05;1.37;;;;;;;10.64;40.30;100068.19;4491224;31;33328;-61
2023/04/28 00:46:42;;;;;;;1.23;1.12;;;;;;;10.82;40.09;100068.69;4490451;31;34717;-61
2023/04/28 00:49:10;;;;;;;3.40;2.45;;;;;;;10.81;39.98;100067.00;4483531;31;32315;-61
2023/04/28 00:51:38;;;;;;;5.82;1.20;;;;;;;10.95;39.77;100075.78;4485024;31;34077;-64
2023/04/28 00:54:05;;;;;;;7.60;2.35;;;;;;;10.95;39.67;100073.09;4489900;31;34458;-62
2023/04/28 00:56:33;;;;;;;2.10;1.45;;;;;;;11.08;39.59;100077.59;4491101;31;34741;-61
2023/04/28 00:59:01;;;;;;;2.92;1.15;;;;;;;10.98;39.66;100068.47;4480237;31;33944;-61
2023/04/28 01:01:28;;;;;;;1.70;1.08;;;;;;;11.11;39.35;100075.53;4497998;31;36069;-61
2023/04/28 01:03:56;;;;;;;1.23;1.00;;;;;;;11.03;39.29;100082.41;4489524;31;33267;-61
2023/04/28 01:06:25;;;;;;;0.88;0.88;;;;;;;10.81;39.62;100088.41;4493074;31;34759;-62
2023/04/28 01:08:53;;;;;;;0.82;0.82;;;;;;;10.78;39.46;100086.81;4494414;31;34283;-61
2023/04/28 01:11:21;;;;;;;1.60;1.50;;;;;;;10.67;39.68;100081.34;4497032;31;34427;-62
2023/04/28 01:13:51;;;;;;;1.17;1.05;;;;;;;10.12;40.83;100080.63;4484376;31;33515;-62
2023/04/28 01:16:18;;;;;;;2.28;1.77;;;;;;;10.19;40.72;100084.59;4483710;31;33704;-62
2023/04/28 01:18:47;;;;;;;2.72;1.05;;;;;;;10.12;40.83;100088.66;4490032;31;32680;-62
2023/04/28 01:21:24;;;;;;;2.42;2.05;;;;;;;9.51;42.61;100088.22;4496723;31;35001;-63
2023/04/28 01:23:52;;;;;;;0.70;0.70;;;;;;;9.48;42.42;100083.06;4491587;31;33390;-63
2023/04/28 01:26:20;;;;;;;1.23;1.12;;;;;;;9.04;43.53;100080.56;4487681;31;35781;-62
2023/04/28 01:28:47;;;;;;;1.12;1.02;;;;;;;9.40;42.48;100080.03;4489197;31;34256;-62
2023/04/28 01:31:15;;;;;;;1.27;1.17;;;;;;;9.74;41.94;100084.03;4493268;31;34031;-62
2023/04/28 01:33:43;;;;;;;1.55;1.30;;;;;;;9.87;41.33;100085.91;4482363;31;33244;-62
2023/04/28 01:36:10;;;;;;;1.48;1.02;;;;;;;9.91;41.01;100080.22;4495714;31;33631;-62
2023/04/28 01:38:38;;;;;;;1.10;0.95;;;;;;;9.46;42.05;100076.94;4488627;31;33961;-62
2023/04/28 01:41:06;;;;;;;2.30;1.70;;;;;;;9.43;42.52;100063.78;4483950;31;34832;-62
2023/04/28 01:43:33;;;;;;;1.83;1.25;;;;;;;9.66;41.67;100069.44;4495468;31;32904;-62
2023/04/28 01:46:01;;;;;;;1.08;0.75;;;;;;;9.69;41.70;100077.28;4492429;31;33553;-61
2023/04/28 01:48:31;;;;;;;2.67;1.35;;;;;;;9.71;41.59;100073.53;4492220;31;33800;-62
2023/04/28 01:50:58;;;;;;;1.90;1.50;;;;;;;9.15;43.08;100074.53;4495228;31;34718;-62
2023/04/28 01:53:26;;;;;;;1.37;1.08;;;;;;;9.76;41.58;100073.25;4490026;31;34735;-62
2023/04/28 01:55:54;;;;;;;3.60;1.62;;;;;;;9.86;41.59;100065.47;4485155;31;34794;-62
2023/04/28 01:58:21;;;;;;;0.95;0.90;;;;;;;10.01;41.55;100067.97;4490169;31;32671;-61
2023/04/28 02:00:49;;;;;;;1.20;0.98;;;;;;;10.28;40.70;100075.13;4492930;31;34298;-61
2023/04/28 02:03:18;;;;;;;0.98;0.77;;;;;;;10.35;40.44;100071.06;4492785;31;33485;-61
2023/04/28 02:05:46;;;;;;;1.40;1.30;;;;;;;10.18;41.09;100084.72;4489637;31;34093;-61
2023/04/28 02:08:14;;;;;;;1.40;1.27;;;;;;;10.16;41.18;100078.59;4494838;31;34911;-61
2023/04/28 02:10:43;;;;;;;1.12;1.02;;;;;;;10.02;41.76;100080.38;4494491;31;33656;-62
2023/04/28 02:13:11;;;;;;;3.75;1.37;;;;;;;10.22;41.05;100068.34;4490885;31;33122;-63
2023/04/28 02:15:40;;;;;;;1.00;0.90;;;;;;;9.46;43.15;100076.09;4496593;31;33969;-63
2023/04/28 02:18:08;;;;;;;1.05;0.95;;;;;;;9.66;42.47;100080.13;4492731;31;34094;-63
2023/04/28 02:20:39;;;;;;;1.67;1.02;;;;;;;9.74;41.88;100081.34;4496088;31;33972;-63
2023/04/28 02:23:07;;;;;;;1.48;1.25;;;;;;;9.73;41.69;100079.66;4491869;31;33309;-63
2023/04/28 02:25:35;;;;;;;2.28;1.58;;;;;;;9.68;41.82;100075.56;4487837;31;32381;-62
2023/04/28 02:28:03;;;;;;;2.40;1.67;;;;;;;9.69;41.80;100085.28;4493432;31;33901;-62
2023/04/28 02:30:33;;;;;;;1.85;1.05;;;;;;;9.72;41.39;100090.44;4492735;31;31951;-63
2023/04/28 02:33:01;;;;;;;4.05;1.83;;;;;;;9.57;42.00;100089.62;4495264;31;34465;-63
2023/04/28 02:35:29;;;;;;;3.10;1.80;;;;;;;9.55;41.73;100084.37;4490008;31;33719;-62
2023/04/28 02:37:57;;;;;;;1.65;1.55;;;;;;;9.49;41.77;100087.44;4495660;31;35892;-62
2023/04/28 02:40:24;;;;;;;2.33;1.62;;;;;;;9.37;42.40;100082.88;4492410;31;33105;-62
2023/04/28 02:42:52;;;;;;;3.90;2.17;;;;;;;9.30;42.57;100085.09;4488575;31;34719;-63
2023/04/28 02:45:20;;;;;;;1.23;1.12;;;;;;;9.39;42.28;100083.66;4492096;31;34022;-63
2023/04/28 02:47:47;;;;;;;1.37;1.17;;;;;;;9.45;42.26;100077.91;4485478;31;33776;-62
2023/04/28 02:50:16;;;;;;;1.75;0.80;;;;;;;9.59;41.74;100086.84;4492931;31;33708;-62
2023/04/28 02:52:43;;;;;;;1.65;1.00;;;;;;;9.66;41.69;100090.84;4495101;31;33454;-63
2023/04/28 02:55:11;;;;;;;1.23;1.02;;;;;;;9.71;41.59;100083.38;4493919;31;33751;-62
2023/04/28 02:57:38;;;;;;;2.80;2.60;;;;;;;9.71;41.61;100078.03;4483483;31;33667;-62
2023/04/28 03:00:07;;;;;;;2.22;1.98;;;;;;;9.74;41.64;100078.69;4494895;31;33447;-63
2023/04/28 03:02:35;;;;;;;3.85;2.05;;;;;;;9.61;41.95;100084.94;4492497;31;33989;-61
2023/04/28 03:05:03;;;;;;;8.80;4.00;;;;;;;9.62;42.14;100094.66;4487034;31;34999;-62
2023/04/28 03:07:31;;;;;;;1.95;1.70;;;;;;;9.48;42.56;100098.25;4488808;31;32865;-62
2023/04/28 03:09:58;;;;;;;2.10;1.90;;;;;;;9.68;42.10;100095.13;4488081;31;34079;-62
2023/04/28 03:12:26;;;;;;;1.95;1.60;;;;;;;9.74;41.69;100089.38;4483396;31;33735;-62
2023/04/28 03:14:53;;;;;;;4.72;2.05;;;;;;;9.74;41.72;100084.03;4493798;31;32601;-62
2023/04/28 03:17:21;;;;;;;4.15;2.17;;;;;;;9.82;41.30;100091.53;4494244;31;34919;-61
2023/04/28 03:19:48;;;;;;;4.90;2.12;;;;;;;9.78;41.41;100095.38;4493861;31;32957;-62
2023/04/28 03:22:16;;;;;;;3.62;2.20;;;;;;;9.91;40.85;100095.41;4488060;31;35230;-61
2023/04/28 03:24:43;;;;;;;4.03;2.20;;;;;;;9.88;40.82;100087.59;4493910;31;35210;-63
2023/04/28 03:27:11;;;;;;;1.77;1.50;;;;;;;9.82;40.96;100088.00;4491373;31;34919;-61
2023/04/28 03:29:38;;;;;;;1.48;1.23;;;;;;;9.66;41.42;100085.47;4489801;31;34517;-62
2023/04/28 03:32:07;;;;;;;2.75;1.60;;;;;;;9.69;41.38;100093.31;4490559;31;34266;-62
2023/04/28 03:34:35;;;;;;;2.90;2.53;;;;;;;9.61;41.74;100085.81;4491896;31;34837;-61
2023/04/28 03:37:03;;;;;;;3.85;2.35;;;;;;;9.60;41.66;100086.75;4496639;31;33665;-62
2023/04/28 03:39:30;;;;;;;3.85;2.08;;;;;;;9.58;42.17;100091.34;4491622;31;34007;-60
2023/04/28 03:41:58;;;;;;;4.20;2.15;;;;;;;9.60;42.72;100091.22;4482361;31;32372;-62
2023/04/28 03:44:28;;;;;;;3.17;1.83;;;;;;;9.71;41.97;100094.94;4492728;31;34808;-61
2023/04/28 03:46:56;;;;;;;2.85;1.67;;;;;;;9.79;41.42;100086.38;4494323;31;34731;-62
2023/04/28 03:49:23;;;;;;;1.05;1.00;;;;;;;9.65;43.09;100089.13;4482506;31;33959;-66
2023/04/28 03:51:51;;;;;;;2.40;1.40;;;;;;;9.87;41.40;100092.09;4488448;31;34740;-62
2023/04/28 03:54:19;;;;;;;1.75;1.42;;;;;;;9.97;41.22;100095.03;4493595;31;33649;-62
2023/04/28 03:56:47;;;;;;;4.30;1.40;;;;;;;10.03;40.83;100095.47;4496850;31;34053;-62
2023/04/28 03:59:15;;;;;;;1.75;1.45;;;;;;;9.90;41.04;100094.56;4489904;31;33973;-62
2023/04/28 04:01:42;;;;;;;2.72;2.17;;;;;;;9.92;40.96;100095.34;4498238;31;33589;-62
2023/04/28 04:04:10;;;;;;;1.75;1.52;;;;;;;9.83;41.16;100103.97;4485597;31;33463;-61
2023/04/28 04:06:38;;;;;;;4.20;2.10;;;;;;;10.03;40.92;100098.13;4489462;31;34312;-62
2023/04/28 04:09:05;;;;;;;3.70;1.90;;;;;;;10.18;40.57;100108.78;4494259;31;34954;-62
2023/04/28 04:11:33;;;;;;;1.75;1.55;;;;;;;10.20;40.46;100113.03;4492191;31;33593;-61
2023/04/28 04:14:01;;;;;;;2.65;1.05;;;;;;;10.24;40.28;100109.22;4493256;31;32681;-61
2023/04/28 04:16:29;;;;;;;2.28;1.60;;;;;;;10.29;40.21;100108.09;4497011;31;34128;-61
2023/04/28 04:18:57;;;;;;;1.17;1.05;;;;;;;10.37;40.29;100109.28;4495556;31;35079;-62
2023/04/28 04:21:26;;;;;;;3.40;1.83;;;;;;;10.61;40.08;100112.09;4492172;31;34992;-61
2023/04/28 04:23:54;;;;;;;1.95;1.50;;;;;;;10.69;39.68;100107.06;4492537;31;34783;-61
2023/04/28 04:26:22;;;;;;;2.70;2.47;;;;;;;10.84;39.33;100118.50;4488504;31;33627;-63
2023/04/28 04:28:50;;;;;;;2.33;1.67;;;;;;;10.88;39.34;100109.31;4493164;31;34169;-61
2023/04/28 04:31:21;;;;;;;2.87;1.90;;;;;;;11.00;39.35;100120.12;4495696;31;34295;-61
2023/04/28 04:33:50;;;;;;;1.27;1.12;;;;;;;11.11;39.24;100117.56;4494272;31;34943;-61
2023/04/28 04:36:18;;;;;;;3.08;2.80;;;;;;;11.29;39.22;100105.50;4498144;31;33850;-61
2023/04/28 04:38:45;;;;;;;4.85;2.90;;;;;;;11.37;39.35;100105.81;4495107;31;33982;-61
2023/04/28 04:41:14;;;;;;;4.22;2.45;;;;;;;11.34;39.76;100108.72;4498397;31;33530;-62
2023/04/28 04:43:42;;;;;;;5.30;3.22;;;;;;;11.44;39.91;100106.22;4496948;31;32664;-61
2023/04/28 04:46:09;;;;;;;4.75;2.50;;;;;;;11.69;38.86;100115.16;4496148;31;33862;-61
2023/04/28 04:48:38;;;;;;;0.93;0.85;;;;;;;11.97;38.99;100116.66;4496197;31;35200;-61
2023/04/28 04:51:06;;;;;;;3.45;2.70;;;;;;;12.29;38.60;100107.03;4488314;31;33972;-61
2023/04/28 04:53:33;;;;;;;6.40;2.17;;;;;;;12.42;38.30;100117.69;4492476;31;33992;-62
2023/04/28 04:56:01;;;;;;;3.53;2.55;;;;;;;12.54;37.15;100118.59;4493283;31;33842;-61
2023/04/28 04:58:29;;;;;;;2.00;1.67;;;;;;;12.48;37.31;100116.38;4487761;31;33841;-61
2023/04/28 05:00:58;;;;;;;4.10;1.92;;;;;;;12.24;37.96;100119.97;4489429;31;33372;-62
2023/04/28 05:03:25;;;;;;;2.67;1.75;;;;;;;11.53;40.58;100123.47;4490598;31;34141;-61
2023/04/28 05:05:54;;;;;;;4.50;2.25;;;;;;;11.94;39.50;100120.47;4491554;31;35344;-62
2023/04/28 05:08:24;;;;;;;2.62;2.37;;;;;;;11.65;40.62;100122.56;4495914;31;34320;-61
2023/04/28 05:10:52;;;;;;;9.75;2.95;;;;;;;12.04;39.69;100117.94;4493912;31;33456;-61
2023/04/28 05:13:19;;;;;;;4.25;2.53;;;;;;;11.92;40.34;100125.06;4495060;31;33743;-61
2023/04/28 05:15:48;;;;;;;2.03;1.67;;;;;;;12.23;39.82;100117.38;4491746;31;33760;-61
2023/04/28 05:18:19;;;;;;;8.20;2.72;;;;;;;12.30;39.97;100114.13;4499010;31;34076;-62
2023/04/28 05:20:47;;;;;;;2.17;1.85;;;;;;;12.08;40.39;100116.75;4489474;31;33690;-61
2023/04/28 05:23:15;;;;;;;4.15;3.58;;;;;;;12.40;40.89;100116.13;4488339;31;33782;-61
2023/04/28 05:25:43;;;;;;;7.37;3.75;;;;;;;12.62;39.52;100110.81;4490757;31;33903;-62
2023/04/28 05:28:10;;;;;;;5.40;2.55;;;;;;;12.57;39.41;100121.03;4496251;31;33968;-61
2023/04/28 05:30:42;;;;;;;4.18;3.55;;;;;;;12.20;39.72;100122.97;4497829;31;33396;-62
2023/04/28 05:33:10;;;;;;;1.65;1.35;;;;;;;13.01;39.12;100127.47;4495089;31;33929;-63
2023/04/28 05:35:38;;;;;;;4.50;3.55;;;;;;;13.15;37.63;100123.69;4490903;31;34210;-61
2023/04/28 05:38:05;;;;;;;3.65;2.35;;;;;;;12.68;38.67;100128.25;4487096;31;33835;-62
2023/04/28 05:40:33;;;;;;;4.70;3.22;;;;;;;12.74;39.13;100119.72;4497506;31;34349;-61
2023/04/28 05:43:01;;;;;;;2.58;2.20;;;;;;;12.77;38.87;100120.34;4496045;31;33975;-62
2023/04/28 05:45:28;;;;;;;5.25;3.03;;;;;;;12.79;38.77;100126.47;4495392;31;35116;-61
2023/04/28 05:47:57;;;;;;;8.88;4.25;;;;;;;12.87;38.92;100130.38;4499884;31;34072;-61
2023/04/28 05:50:25;;;;;;;5.68;3.58;;;;;;;13.28;38.39;100128.00;4489139;31;34778;-62
2023/04/28 05:52:52;;;;;;;7.93;3.45;;;;;;;12.73;39.45;100131.47;4491326;31;32810;-61
2023/04/28 05:55:21;;;;;;;7.95;2.90;;;;;;;13.09;38.06;100127.72;4494163;31;34308;-64
2023/04/28 05:57:48;;;;;;;4.28;2.90;;;;;;;12.93;38.18;100130.75;4494627;31;33477;-61
2023/04/28 06:00:21;;;;;;;3.75;2.20;;;;;;;12.71;39.91;100133.41;4485999;31;34772;-61
2023/04/28 06:02:48;;;;;;;2.12;1.75;;;;;;;12.69;39.69;100130.84;4491839;31;35086;-61
2023/04/28 06:05:16;;;;;;;6.05;3.37;;;;;;;11.60;42.13;100139.00;4496950;31;34264;-61
2023/04/28 06:07:44;;;;;;;6.18;3.40;;;;;;;12.43;41.20;100132.00;4493841;31;34186;-62
2023/04/28 06:10:15;;;;;;;3.00;2.28;;;;;;;12.89;39.89;100137.34;4498877;31;33492;-60
2023/04/28 06:12:43;;;;;;;8.32;4.25;;;;;;;12.94;40.84;100143.22;4489314;31;34531;-61
2023/04/28 06:15:10;;;;;;;10.15;2.97;;;;;;;12.97;39.95;100144.78;4484035;31;36279;-62
2023/04/28 06:17:38;;;;;;;3.15;2.58;;;;;;;13.31;39.96;100139.47;4495834;31;34040;-62
2023/04/28 06:20:06;;;;;;;8.65;4.50;;;;;;;13.43;38.80;100141.19;4490992;31;33710;-61
2023/04/28 06:22:34;;;;;;;6.80;3.35;;;;;;;13.72;38.65;100137.00;4495657;31;33949;-61
2023/04/28 06:25:01;;;;;;;3.45;2.40;;;;;;;13.93;38.46;100137.09;4496458;31;33885;-61
2023/04/28 06:27:31;;;;;;;16.33;3.62;;;;;;;14.03;37.89;100138.97;4497832;31;33950;-62
2023/04/28 06:29:59;;;;;;;5.45;3.12;;;;;;;13.73;38.22;100141.38;4497747;31;34563;-61
2023/04/28 06:32:26;;;;;;;5.03;2.50;;;;;;;14.03;36.40;100142.56;4493187;31;32590;-61
2023/04/28 06:34:54;;;;;;;6.18;2.75;;;;;;;13.92;36.52;100145.25;4488654;31;34928;-62
2023/04/28 06:37:25;;;;;;;2.50;1.87;;;;;;;14.16;36.00;100143.25;4492032;31;34767;-62
2023/04/28 06:39:53;;;;;;;4.43;2.08;;;;;;;14.34;35.58;100146.22;4491540;31;32388;-62
2023/04/28 06:42:20;;;;;;;4.40;2.83;;;;;;;13.39;36.52;100137.06;4490091;31;33529;-62
2023/04/28 06:44:49;;;;;;;4.03;2.47;;;;;;;13.43;35.21;100139.34;4486011;31;33585;-61
2023/04/28 06:47:17;;;;;;;3.60;1.52;;;;;;;13.55;35.68;100148.28;4493975;31;35328;-62
2023/04/28 06:49:46;;;;;;;3.10;2.08;;;;;;;13.20;35.02;100149.22;4493912;31;32484;-63
2023/04/28 06:52:13;;;;;;;4.87;2.87;;;;;;;13.47;35.17;100145.34;4497035;31;34671;-62
2023/04/28 06:54:41;;;;;;;2.85;1.85;;;;;;;13.19;35.21;100150.22;4486241;31;33542;-62
2023/04/28 06:57:08;;;;;;;7.28;2.30;;;;;;;13.57;35.23;100151.69;4483819;31;33924;-63
2023/04/28 06:59:37;;;;;;;4.00;2.58;;;;;;;14.06;35.13;100145.00;4494858;31;33218;-61
2023/04/28 07:02:04;;;;;;;5.30;2.12;;;;;;;14.31;33.80;100140.22;4490881;31;32569;-61
2023/04/28 07:04:32;;;;;;;3.72;2.50;;;;;;;13.91;34.80;100140.88;4494358;31;33640;-63
2023/04/28 07:06:59;;;;;;;7.28;3.55;;;;;;;14.08;34.65;100136.78;4484965;31;34055;-62
2023/04/28 07:09:27;;;;;;;6.65;2.95;;;;;;;13.77;34.98;100138.44;4484670;31;33663;-62
2023/04/28 07:11:57;;;;;;;7.53;3.33;;;;;;;14.19;35.16;100136.75;4494256;31;34560;-61
2023/04/28 07:14:24;;;;;;;4.03;2.22;;;;;;;14.05;35.79;100142.41;4494249;31;35158;-61
2023/04/28 07:16:52;;;;;;;7.78;2.78;;;;;;;14.49;34.94;100137.84;4496575;31;33753;-61
2023/04/28 07:19:20;;;;;;;10.73;4.10;;;;;;;14.87;33.77;100138.13;4483921;31;34748;-62
2023/04/28 07:21:47;;;;;;;5.70;3.45;;;;;;;14.84;34.33;100137.53;4496519;31;33683;-62
2023/04/28 07:24:15;;;;;;;5.37;3.25;;;;;;;15.06;33.89;100134.69;4490199;31;35202;-61
2023/04/28 07:26:43;;;;;;;4.97;2.35;;;;;;;14.67;34.68;100131.78;4490158;31;35218;-61
2023/04/28 07:29:12;;;;;;;4.72;2.95;;;;;;;14.85;34.53;100132.00;4487677;31;31664;-62
2023/04/28 07:31:40;;;;;;;6.15;3.33;;;;;;;15.30;34.06;100128.97;4490668;31;33688;-62
2023/04/28 07:34:07;;;;;;;9.38;3.75;;;;;;;15.34;34.40;100130.44;4496573;31;33915;-62
2023/04/28 07:36:35;;;;;;;11.10;4.37;;;;;;;15.44;34.52;100121.50;4489013;31;33692;-59
2023/04/28 07:39:02;;;;;;;7.90;3.90;;;;;;;15.41;35.61;100125.34;4495532;31;33554;-60
2023/04/28 07:41:35;;;;;;;5.35;3.87;;;;;;;15.27;34.82;100136.47;4494005;31;35036;-61
2023/04/28 07:44:04;;;;;;;7.30;4.72;;;;;;;14.97;35.22;100126.56;4492679;31;33864;-61
2023/04/28 07:46:32;;;;;;;6.43;3.03;;;;;;;15.27;35.35;100123.00;4489989;31;34011;-62
2023/04/28 07:48:59;;;;;;;7.35;3.35;;;;;;;15.47;35.81;100122.06;4490529;31;33501;-59
2023/04/28 07:51:27;;;;;;;5.82;2.92;;;;;;;15.29;36.17;100115.63;4489443;31;32247;-60
2023/04/28 07:53:55;;;;;;;6.95;3.90;;;;;;;15.61;35.07;100120.84;4492412;31;33841;-60
2023/04/28 07:56:24;;;;;;;9.68;3.58;;;;;;;15.57;34.52;100117.59;4493204;31;35254;-60
2023/04/28 07:58:52;;;;;;;5.55;3.35;;;;;;;15.98;33.48;100104.03;4495152;31;32639;-60
2023/04/28 08:01:19;;;;;;;6.95;1.90;;;;;;;16.03;33.96;100097.25;4492904;31;33615;-62
2023/04/28 08:03:47;;;;;;;18.95;2.03;;;;;;;15.46;31.83;100098.78;4490706;31;35071;-60
2023/04/28 08:06:15;;;;;;;9.32;3.78;;;;;;;15.97;30.82;100089.69;4488696;31;34182;-61
2023/04/28 08:08:42;;;;;;;9.40;3.33;;;;;;;15.43;31.71;100100.91;4495112;31;33604;-59
2023/04/28 08:11:10;;;;;;;4.97;3.42;;;;;;;15.63;30.40;100097.28;4493997;31;34326;-60
2023/04/28 08:13:37;;;;;;;10.50;2.97;;;;;;;16.20;30.63;100079.47;4489208;31;33897;-60
2023/04/28 08:16:05;;;;;;;3.87;2.35;;;;;;;16.15;30.77;100080.91;4495546;31;34076;-61
2023/04/28 08:18:33;;;;;;;5.37;3.08;;;;;;;15.82;29.71;100075.75;4487769;31;32251;-60
2023/04/28 08:21:01;;;;;;;13.98;3.90;;;;;;;16.11;30.20;100076.78;4485805;31;34416;-61
2023/04/28 08:23:30;;;;;;;7.62;3.65;;;;;;;16.85;29.60;100076.12;4492336;31;33729;-60
2023/04/28 08:25:58;;;;;;;6.10;3.03;;;;;;;14.93;31.82;100076.59;4490082;31;33745;-60
2023/04/28 08:28:26;;;;;;;7.37;2.83;;;;;;;15.55;31.58;100078.25;4496486;31;34335;-59
2023/04/28 08:30:54;;;;;;;4.32;2.80;;;;;;;16.30;29.83;100074.91;4487992;31;35131;-60
2023/04/28 08:33:22;;;;;;;9.95;2.97;;;;;;;16.46;28.53;100071.63;4493700;31;32859;-60
2023/04/28 08:35:50;;;;;;;5.22;3.00;;;;;;;16.88;28.00;100067.72;4482321;31;34245;-60
2023/04/28 08:38:17;;;;;;;6.80;2.42;;;;;;;16.74;29.29;100067.16;4490845;31;32660;-60
2023/04/28 08:40:45;;;;;;;8.25;3.35;;;;;;;17.08;28.92;100072.06;4492802;31;34958;-61
2023/04/28 08:43:13;;;;;;;6.57;3.87;;;;;;;17.47;28.39;100066.47;4487247;31;34006;-60
2023/04/28 08:45:42;;;;;;;4.45;2.47;;;;;;;17.04;28.42;100058.97;4492107;31;33750;-60
2023/04/28 08:48:20;;;;;;;8.70;3.00;;;;;;;17.37;28.50;100055.69;4480658;31;33537;-60
2023/04/28 08:50:53;;;;;;;6.15;3.65;;;;;;;17.06;29.18;100059.69;4492550;31;35017;-60
2023/04/28 08:53:24;;;;;;;5.47;2.40;;;;;;;17.30;28.57;100051.03;4493878;31;32814;-61
2023/04/28 08:55:55;;;;;;;6.50;3.50;;;;;;;17.19;28.88;100052.94;4495454;31;33255;-60
2023/04/28 08:58:24;;;;;;;19.95;3.92;;;;;;;17.43;28.55;100055.09;4492423;31;33398;-61
2023/04/28 09:00:52;;;;;;;14.07;3.90;;;;;;;17.04;28.53;100051.72;4485666;31;33872;-61
2023/04/28 09:03:20;;;;;;;10.23;2.95;;;;;;;17.39;29.03;100050.97;4492927;31;33927;-60
2023/04/28 09:05:48;;;;;;;10.30;3.85;;;;;;;16.45;30.12;100056.41;4491181;31;34916;-68
2023/04/28 09:08:17;;;;;;;8.95;3.80;;;;;;;17.47;28.51;100044.81;4482609;31;33339;-60
2023/04/28 09:10:45;;;;;;;6.05;2.85;;;;;;;17.33;27.35;100045.31;4490913;31;34563;-60
2023/04/28 09:13:24;;;;;;;6.60;2.12;;;;;;;17.58;28.11;100057.28;4492946;31;34996;-59
2023/04/28 09:15:58;;;;;;;4.15;2.40;;;;;;;17.44;26.83;100048.69;4489473;31;35213;-60
2023/04/28 09:18:26;;;;;;;7.27;2.63;;;;;;;17.46;27.00;100052.09;4493318;31;33629;-59
2023/04/28 09:21:02;;;;;;;3.67;1.85;;;;;;;16.85;27.36;100054.50;4495068;31;33916;-59
2023/04/28 09:23:29;;;;;;;4.70;2.47;;;;;;;17.75;25.87;100053.72;4492473;31;33955;-59
2023/04/28 09:26:06;;;;;;;7.25;3.08;;;;;;;18.36;26.00;100050.28;4492356;31;35143;-59
2023/04/28 09:28:35;;;;;;;8.00;2.08;;;;;;;17.33;27.74;100058.84;4482909;31;34467;-60
2023/04/28 09:31:02;;;;;;;4.97;2.12;;;;;;;17.21;26.45;100058.22;4497713;31;33909;-59
2023/04/28 09:33:30;;;;;;;7.28;2.25;;;;;;;18.08;26.24;100052.25;4493129;31;34007;-60
2023/04/28 09:35:58;;;;;;;5.03;2.58;;;;;;;18.10;26.29;100061.03;4490514;31;34255;-60
2023/04/28 09:38:25;;;;;;;5.20;1.85;;;;;;;18.25;25.42;100049.66;4485264;31;34706;-60
2023/04/28 09:40:59;;;;;;;4.30;1.95;;;;;;;18.11;25.41;100049.22;4487594;31;34644;-60
2023/04/28 09:43:31;;;;;;;7.37;2.97;;;;;;;18.72;25.02;100041.22;4486822;31;33702;-59
2023/04/28 09:46:01;;;;;;;6.20;2.90;;;;;;;18.00;26.50;100044.03;4485317;31;33276;-61
2023/04/28 09:48:33;;;;;;;4.72;2.50;;;;;;;17.69;26.51;100043.53;4490406;31;33499;-60
2023/04/28 09:51:03;;;;;;;5.82;2.40;;;;;;;18.63;25.47;100034.88;4485843;31;32472;-60
2023/04/28 09:53:31;;;;;;;6.47;2.75;;;;;;;18.87;25.61;100036.06;4485730;31;34131;-60
2023/04/28 09:56:01;;;;;;;4.60;2.62;;;;;;;18.81;25.40;100032.12;4491785;31;32886;-60
2023/04/28 09:58:29;;;;;;;6.10;2.45;;;;;;;18.19;25.92;100032.19;4486022;31;32399;-61
2023/04/28 10:00:58;;;;;;;4.60;2.42;;;;;;;17.96;26.00;100036.38;4489622;31;34106;-60
2023/04/28 10:03:30;;;;;;;9.40;2.70;;;;;;;18.18;26.09;100022.34;4486609;31;33456;-60
2023/04/28 10:05:58;;;;;;;6.68;2.60;;;;;;;19.35;25.31;100012.88;4495318;31;32095;-61
2023/04/28 10:08:26;;;;;;;5.43;3.00;;;;;;;17.73;25.98;100008.91;4483840;31;33600;-60
2023/04/28 10:10:55;;;;;;;6.18;2.50;;;;;;;18.20;25.18;100012.19;4491455;31;34981;-60
2023/04/28 10:13:23;;;;;;;12.07;2.75;;;;;;;18.03;25.17;100007.66;4482358;31;33908;-59
2023/04/28 10:15:54;;;;;;;13.43;3.47;;;;;;;16.85;26.71;100003.97;4497750;31;33747;-60
2023/04/28 10:18:23;;;;;;;4.45;2.33;;;;;;;17.27;27.61;99998.09;4484397;31;32241;-60
2023/04/28 10:20:59;;;;;;;3.53;2.47;;;;;;;17.37;26.70;100003.44;4487869;31;35492;-60
2023/04/28 10:23:33;;;;;;;6.18;2.12;;;;;;;18.22;25.81;99998.50;4484796;31;34314;-60
2023/04/28 10:26:02;;;;;;;3.78;2.37;;;;;;;17.87;26.10;99995.69;4492568;31;35476;-60
2023/04/28 10:28:29;;;;;;;12.05;4.20;;;;;;;17.62;27.11;99991.00;4481738;31;34781;-62
2023/04/28 10:31:22;;;;;;;8.75;2.62;;;;;;;17.82;26.93;99980.94;4485902;31;32855;-60
2023/04/28 10:33:50;;;;;;;16.33;3.60;;;;;;;17.73;26.21;99977.25;4484342;31;34098;-60
2023/04/28 10:36:49;;;;;;;7.97;3.40;;;;;;;17.62;26.90;99985.59;4484043;31;34703;-60
2023/04/28 10:39:17;;;;;;;9.43;2.87;;;;;;;17.67;26.89;99978.72;4482077;31;33368;-60
2023/04/28 10:41:46;;;;;;;5.45;2.70;;;;;;;17.87;26.25;99979.44;4485134;31;34761;-60
2023/04/28 10:44:43;;;;;;;3.28;1.48;;;;;;;18.17;25.82;99969.19;4482503;31;33818;-60
2023/04/28 10:47:11;;;;;;;7.37;2.78;;;;;;;18.62;25.47;99960.00;4483640;31;35118;-60
2023/04/28 10:49:54;;;;;;;6.97;3.42;;;;;;;18.03;25.82;99969.75;4493919;31;33627;-60
2023/04/28 10:52:37;;;;;;;5.25;3.10;;;;;;;18.58;25.75;99955.87;4483640;31;35051;-61
2023/04/28 10:55:36;;;;;;;9.65;3.45;;;;;;;18.66;25.40;99949.69;4491526;31;35019;-61
2023/04/28 10:58:16;;;;;;;7.37;2.78;;;;;;;18.34;26.17;99959.31;4487584;31;34962;-60
2023/04/28 11:00:47;;;;;;;7.10;3.00;;;;;;;18.31;26.47;99943.38;4490226;31;33782;-60
2023/04/28 11:06:38;;;;;;;3.05;1.75;;;;;;;18.39;26.24;99941.56;4484936;31;34489;-60
2023/04/28 11:09:18;;;;;;;3.03;1.95;;;;;;;17.81;26.51;99942.16;4481525;31;34993;-60
2023/04/28 11:12:02;;;;;;;4.90;2.72;;;;;;;17.65;26.37;99942.81;4488017;31;33676;-59
2023/04/28 11:14:30;;;;;;;3.87;1.52;;;;;;;18.42;25.62;99934.13;4486678;31;34798;-60
2023/04/28 11:17:01;;;;;;;7.90;3.17;;;;;;;18.36;26.20;99932.87;4483142;31;33983;-62
2023/04/28 11:19:32;;;;;;;3.28;1.80;;;;;;;18.42;26.06;99923.28;4487699;31;35154;-60
2023/04/28 11:22:03;;;;;;;6.80;2.67;;;;;;;18.37;26.70;99921.91;4489172;31;33321;-60
2023/04/28 11:24:31;;;;;;;6.82;2.60;;;;;;;18.26;26.78;99913.19;4486652;31;33587;-60
2023/04/28 11:26:59;;;;;;;7.68;3.67;;;;;;;17.83;27.81;99925.75;4486374;31;33738;-60
2023/04/28 11:29:37;;;;;;;8.38;2.65;;;;;;;17.73;27.38;99925.81;4487239;31;33909;-61
2023/04/28 11:32:06;;;;;;;5.85;2.22;;;;;;;17.90;27.05;99926.81;4489754;31;33221;-60
2023/04/28 11:34:36;;;;;;;3.20;1.92;;;;;;;18.18;27.26;99927.53;4486384;31;34593;-60
2023/04/28 11:37:05;;;;;;;3.95;1.85;;;;;;;17.59;28.01;99920.94;4492036;31;34058;-60
2023/04/28 11:39:33;;;;;;;3.22;2.03;;;;;;;17.56;27.46;99919.41;4489440;31;33990;-60